createdAt,value
2018-02-21T00:01:59.169Z,3.00
2018-02-21T00:04:26.636Z,3.00
2018-02-21T00:06:54.078Z,2.90
2018-02-21T00:09:21.525Z,2.90
2018-02-21T00:11:49.078Z,2.90
2018-02-21T00:14:16.527Z,2.90
2018-02-21T00:16:43.973Z,2.90
2018-02-21T00:19:12.911Z,2.90
2018-02-21T00:21:40.403Z,2.90
2018-02-21T00:24:07.874Z,2.90
2018-02-21T00:26:36.073Z,2.90
2018-02-21T00:29:03.521Z,2.90
2018-02-21T00:31:34.313Z,2.90
2018-02-21T00:34:01.775Z,2.90
2018-02-21T00:36:29.247Z,2.90
2018-02-21T00:38:57.002Z,2.90
2018-02-21T00:41:24.600Z,2.80
2018-02-21T00:43:52.054Z,2.80
2018-02-21T00:46:19.520Z,2.80
2018-02-21T00:48:46.982Z,2.80
2018-02-21T00:51:14.510Z,2.80
2018-02-21T00:53:41.959Z,2.80
2018-02-21T00:56:09.413Z,2.80
2018-02-21T00:58:36.857Z,2.80
2018-02-21T01:01:10.054Z,2.70
2018-02-21T01:03:37.500Z,2.70
2018-02-21T01:06:04.960Z,2.70
2018-02-21T01:08:32.438Z,2.70
2018-02-21T01:10:59.878Z,2.70
2018-02-21T01:13:27.350Z,2.80
2018-02-21T01:15:54.969Z,2.80
2018-02-21T01:18:22.458Z,2.70
2018-02-21T01:20:49.929Z,2.70
2018-02-21T01:23:17.397Z,2.70
2018-02-21T01:25:44.869Z,2.70
2018-02-21T01:28:12.312Z,2.70
2018-02-21T01:30:39.754Z,2.70
2018-02-21T01:33:07.982Z,2.80
2018-02-21T01:35:35.425Z,2.70
2018-02-21T01:38:02.890Z,2.80
2018-02-21T01:40:30.339Z,2.80
2018-02-21T01:42:58.899Z,2.80
2018-02-21T01:45:26.375Z,2.70
2018-02-21T01:47:53.828Z,2.80
2018-02-21T01:50:21.295Z,2.80
2018-02-21T01:52:48.761Z,2.80
2018-02-21T01:55:16.203Z,2.80
2018-02-21T01:57:43.672Z,2.80
2018-02-21T02:00:11.117Z,2.80
2018-02-21T02:02:38.593Z,2.80
2018-02-21T02:05:06.268Z,2.70
2018-02-21T02:07:33.714Z,2.70
2018-02-21T02:10:01.166Z,2.70
2018-02-21T02:12:28.631Z,2.70
2018-02-21T02:14:56.104Z,2.70
2018-02-21T02:17:23.553Z,2.70
2018-02-21T02:19:51.001Z,2.60
2018-02-21T02:22:18.469Z,2.60
2018-02-21T02:24:45.921Z,2.50
2018-02-21T02:27:13.385Z,2.50
2018-02-21T02:29:40.824Z,2.40
2018-02-21T02:32:08.279Z,2.40
2018-02-21T02:34:35.732Z,2.30
2018-02-21T02:37:03.172Z,2.30
2018-02-21T02:39:43.260Z,2.30
2018-02-21T02:42:10.716Z,2.20
2018-02-21T02:44:38.176Z,2.30
2018-02-21T02:47:05.622Z,2.30
2018-02-21T02:49:33.069Z,2.40
2018-02-21T02:52:00.530Z,2.40
2018-02-21T02:54:27.981Z,2.50
2018-02-21T02:56:55.417Z,2.50
2018-02-21T02:59:22.883Z,2.50
2018-02-21T03:01:50.337Z,2.50
2018-02-21T03:04:17.796Z,2.50
2018-02-21T03:06:45.272Z,2.60
2018-02-21T03:09:12.741Z,2.60
2018-02-21T03:11:40.200Z,2.60
2018-02-21T03:14:07.682Z,2.70
2018-02-21T03:16:35.129Z,2.70
2018-02-21T03:19:02.581Z,2.70
2018-02-21T03:21:30.080Z,2.70
2018-02-21T03:23:57.525Z,2.70
2018-02-21T03:26:24.966Z,2.70
2018-02-21T03:28:52.426Z,2.70
2018-02-21T03:31:19.887Z,2.80
2018-02-21T03:33:47.329Z,2.80
2018-02-21T03:36:14.786Z,2.80
2018-02-21T03:38:42.236Z,2.80
2018-02-21T03:41:09.682Z,2.80
2018-02-21T03:43:37.154Z,2.80
2018-02-21T03:46:06.191Z,2.80
2018-02-21T03:48:33.641Z,2.80
2018-02-21T03:51:01.097Z,2.80
2018-02-21T03:53:28.539Z,2.80
2018-02-21T03:55:55.981Z,2.80
2018-02-21T03:58:23.429Z,2.80
2018-02-21T04:00:50.878Z,2.80
2018-02-21T04:03:18.322Z,2.90
2018-02-21T04:05:45.792Z,2.90
2018-02-21T04:08:13.242Z,2.90
2018-02-21T04:10:40.687Z,2.90
2018-02-21T04:13:08.151Z,2.90
2018-02-21T04:15:35.595Z,2.90
2018-02-21T04:18:03.036Z,2.90
2018-02-21T04:20:30.496Z,3.00
2018-02-21T04:22:57.968Z,3.00
2018-02-21T04:25:25.422Z,3.00
2018-02-21T04:27:52.887Z,2.90
2018-02-21T04:30:20.333Z,2.90
2018-02-21T04:32:48.049Z,2.90
2018-02-21T04:35:15.598Z,2.90
2018-02-21T04:37:43.045Z,2.90
2018-02-21T04:40:10.490Z,2.80
2018-02-21T04:42:37.972Z,2.80
2018-02-21T04:45:05.434Z,2.70
2018-02-21T04:47:32.893Z,2.70
2018-02-21T04:50:00.342Z,2.60
2018-02-21T04:52:27.781Z,2.60
2018-02-21T04:54:59.080Z,2.50
2018-02-21T04:57:32.230Z,2.40
2018-02-21T05:00:03.270Z,2.30
2018-02-21T05:02:30.733Z,2.20
2018-02-21T05:04:58.204Z,2.10
2018-02-21T05:07:25.663Z,2.00
2018-02-21T05:09:53.127Z,2.00
2018-02-21T05:12:20.581Z,2.00
2018-02-21T05:14:48.029Z,1.90
2018-02-21T05:17:16.241Z,1.80
2018-02-21T05:19:43.706Z,1.70
2018-02-21T05:22:11.154Z,1.80
2018-02-21T05:24:38.600Z,1.70
2018-02-21T05:27:06.067Z,1.70
2018-02-21T05:29:40.357Z,1.60
2018-02-21T05:32:07.835Z,1.60
2018-02-21T05:34:35.276Z,1.60
2018-02-21T05:37:02.719Z,1.60
2018-02-21T05:39:30.177Z,1.50
2018-02-21T05:42:00.335Z,1.50
2018-02-21T05:44:28.557Z,1.50
2018-02-21T05:46:56.001Z,1.40
2018-02-21T05:49:23.450Z,1.40
2018-02-21T05:51:50.919Z,1.40
2018-02-21T05:54:18.656Z,1.40
2018-02-21T05:56:46.099Z,1.40
2018-02-21T05:59:13.574Z,1.40
2018-02-21T06:01:41.010Z,1.30
2018-02-21T06:04:08.462Z,1.30
2018-02-21T06:06:35.936Z,1.30
2018-02-21T06:09:03.386Z,1.30
2018-02-21T06:11:30.859Z,1.20
2018-02-21T06:13:58.313Z,1.20
2018-02-21T06:16:25.759Z,1.20
2018-02-21T06:18:53.206Z,1.20
2018-02-21T06:21:20.677Z,1.20
2018-02-21T06:23:48.117Z,1.20
2018-02-21T06:26:15.553Z,1.20
2018-02-21T06:28:43.001Z,1.10
2018-02-21T06:31:13.697Z,1.10
2018-02-21T06:33:41.144Z,1.10
2018-02-21T06:36:08.589Z,1.10
2018-02-21T06:38:36.800Z,1.10
2018-02-21T06:41:04.268Z,1.10
2018-02-21T06:43:31.737Z,1.10
2018-02-21T06:45:59.190Z,1.10
2018-02-21T06:48:26.685Z,1.10
2018-02-21T06:50:54.161Z,1.10
2018-02-21T06:53:21.602Z,1.10
2018-02-21T06:55:49.046Z,1.10
2018-02-21T06:58:16.727Z,1.10
2018-02-21T07:00:44.182Z,1.10
2018-02-21T07:03:11.633Z,1.10
2018-02-21T07:05:39.092Z,1.20
2018-02-21T07:08:06.544Z,1.20
2018-02-21T07:10:34.006Z,1.20
2018-02-21T07:13:01.476Z,1.20
2018-02-21T07:15:28.944Z,1.30
2018-02-21T07:17:56.374Z,1.30
2018-02-21T07:20:23.825Z,1.30
2018-02-21T07:22:51.284Z,1.40
2018-02-21T07:25:18.721Z,1.40
2018-02-21T07:27:46.190Z,1.50
2018-02-21T07:30:14.408Z,1.70
2018-02-21T07:32:41.861Z,1.60
2018-02-21T07:35:09.322Z,2.10
2018-02-21T07:37:36.757Z,2.70
2018-02-21T07:40:05.303Z,3.80
2018-02-21T07:42:32.753Z,3.80
2018-02-21T07:45:00.201Z,4.40
2018-02-21T07:47:27.652Z,4.80
2018-02-21T07:49:55.096Z,5.20
2018-02-21T07:52:23.320Z,6.10
2018-02-21T07:54:50.771Z,6.00
2018-02-21T07:57:18.214Z,6.40
2018-02-21T07:59:45.670Z,6.90
2018-02-21T08:02:13.365Z,7.30
2018-02-21T08:04:40.805Z,7.60
2018-02-21T08:07:08.264Z,7.90
2018-02-21T08:09:35.692Z,8.30
2018-02-21T08:12:03.918Z,9.10
2018-02-21T08:14:31.357Z,9.00
2018-02-21T08:16:59.565Z,9.70
2018-02-21T08:19:27.033Z,9.60
2018-02-21T08:21:54.893Z,10.00
2018-02-21T08:24:22.369Z,10.30
2018-02-21T08:26:49.822Z,10.50
2018-02-21T08:29:17.269Z,10.70
2018-02-21T08:31:44.747Z,11.00
2018-02-21T08:34:12.190Z,11.10
2018-02-21T08:36:39.652Z,11.10
2018-02-21T08:39:07.302Z,11.20
2018-02-21T08:41:34.764Z,11.40
2018-02-21T08:44:02.225Z,11.70
2018-02-21T08:46:29.676Z,12.00
2018-02-21T08:48:57.765Z,12.00
2018-02-21T08:51:25.217Z,12.00
2018-02-21T08:53:52.673Z,12.10
2018-02-21T08:56:20.130Z,12.30
2018-02-21T08:58:47.650Z,12.50
2018-02-21T09:01:15.842Z,12.40
2018-02-21T09:03:43.300Z,12.40
2018-02-21T09:06:10.762Z,12.60
2018-02-21T09:08:38.210Z,12.70
2018-02-21T09:11:05.669Z,13.10
2018-02-21T09:13:33.118Z,13.30
2018-02-21T09:16:00.616Z,13.40
2018-02-21T09:18:28.086Z,13.70
2018-02-21T09:20:55.533Z,13.70
2018-02-21T09:23:22.989Z,13.60
2018-02-21T09:25:50.440Z,13.50
2018-02-21T09:28:18.018Z,13.50
2018-02-21T09:30:45.483Z,13.40
2018-02-21T09:33:12.937Z,13.40
2018-02-21T09:35:40.399Z,13.70
2018-02-21T09:38:07.885Z,13.90
2018-02-21T09:40:35.342Z,14.00
2018-02-21T09:43:02.822Z,13.90
2018-02-21T09:45:31.054Z,14.30
2018-02-21T09:47:58.534Z,14.30
2018-02-21T09:50:25.983Z,14.50
2018-02-21T09:52:53.415Z,14.20
2018-02-21T09:55:21.037Z,13.90
2018-02-21T09:57:48.486Z,13.80
2018-02-21T10:00:15.963Z,13.80
2018-02-21T10:02:43.420Z,14.30
2018-02-21T10:05:10.866Z,14.60
2018-02-21T10:07:38.329Z,14.60
2018-02-21T10:10:05.776Z,14.30
2018-02-21T10:12:33.241Z,14.40
2018-02-21T10:15:00.694Z,14.50
2018-02-21T10:17:28.145Z,14.50
2018-02-21T10:19:55.611Z,14.10
2018-02-21T10:22:23.067Z,13.90
2018-02-21T10:24:50.535Z,13.60
2018-02-21T10:27:17.981Z,13.50
2018-02-21T10:29:45.431Z,13.90
2018-02-21T10:32:12.883Z,14.60
2018-02-21T10:34:40.347Z,15.20
2018-02-21T10:37:07.809Z,15.50
2018-02-21T10:39:35.266Z,15.70
2018-02-21T10:42:02.723Z,15.90
2018-02-21T10:44:30.189Z,16.30
2018-02-21T10:46:57.641Z,16.50
2018-02-21T10:49:25.178Z,16.60
2018-02-21T10:51:52.631Z,16.80
2018-02-21T10:54:20.114Z,16.70
2018-02-21T10:56:48.339Z,16.60
2018-02-21T10:59:15.806Z,16.50
2018-02-21T11:01:43.283Z,16.20
2018-02-21T11:04:10.726Z,15.40
2018-02-21T11:06:38.174Z,14.90
2018-02-21T11:09:05.651Z,14.70
2018-02-21T11:11:33.150Z,14.60
2018-02-21T11:14:00.621Z,14.50
2018-02-21T11:16:28.071Z,14.70
2018-02-21T11:18:55.521Z,15.00
2018-02-21T11:21:23.058Z,15.50
2018-02-21T11:23:50.658Z,15.80
2018-02-21T11:26:18.113Z,16.30
2018-02-21T11:28:45.567Z,16.70
2018-02-21T11:31:13.665Z,16.80
2018-02-21T11:33:41.134Z,17.50
2018-02-21T11:36:08.598Z,18.00
2018-02-21T11:38:36.066Z,18.00
2018-02-21T11:41:03.529Z,18.10
2018-02-21T11:43:31.377Z,18.40
2018-02-21T11:45:58.866Z,18.70
2018-02-21T11:48:27.077Z,19.50
2018-02-21T11:50:54.588Z,19.50
2018-02-21T11:53:22.009Z,19.70
2018-02-21T11:55:49.462Z,19.60
2018-02-21T11:58:16.935Z,19.60
2018-02-21T12:00:44.509Z,19.70
2018-02-21T12:03:11.969Z,20.10
2018-02-21T12:05:39.418Z,20.40
2018-02-21T12:08:06.889Z,20.20
2018-02-21T12:10:34.367Z,20.20
2018-02-21T12:13:02.025Z,20.30
2018-02-21T12:15:29.902Z,20.10
2018-02-21T12:17:57.681Z,19.90
2018-02-21T12:20:25.154Z,19.40
2018-02-21T12:22:53.381Z,19.40
2018-02-21T12:25:20.853Z,19.30
2018-02-21T12:27:48.621Z,19.30
2018-02-21T12:30:16.075Z,19.20
2018-02-21T12:32:49.086Z,19.00
2018-02-21T12:35:16.546Z,18.90
2018-02-21T12:37:44.793Z,19.40
2018-02-21T12:40:17.823Z,19.30
2018-02-21T12:42:45.316Z,19.90
2018-02-21T12:45:13.080Z,20.00
2018-02-21T12:47:40.535Z,19.80
2018-02-21T12:50:08.156Z,19.40
2018-02-21T12:52:35.568Z,19.20
2018-02-21T12:55:03.422Z,19.50
2018-02-21T12:57:30.877Z,19.30
2018-02-21T12:59:58.553Z,19.20
2018-02-21T13:02:26.013Z,19.40
2018-02-21T13:04:53.454Z,19.40
2018-02-21T13:07:20.886Z,19.40
2018-02-21T13:09:48.341Z,19.30
2018-02-21T13:12:16.233Z,19.10
2018-02-21T13:14:43.704Z,18.70
2018-02-21T13:17:11.153Z,18.90
2018-02-21T13:19:38.633Z,19.30
2018-02-21T13:22:06.329Z,19.70
2018-02-21T13:24:33.786Z,20.30
2018-02-21T13:27:02.379Z,20.70
2018-02-21T13:29:29.801Z,21.00
2018-02-21T13:31:57.260Z,20.50
2018-02-21T13:34:24.717Z,19.90
2018-02-21T13:36:52.158Z,19.80
2018-02-21T13:39:19.621Z,19.40
2018-02-21T13:41:47.088Z,19.10
2018-02-21T13:44:14.533Z,19.10
2018-02-21T13:46:43.089Z,19.30
2018-02-21T13:49:10.573Z,19.30
2018-02-21T13:51:38.033Z,18.70
2018-02-21T13:54:05.482Z,18.60
2018-02-21T13:56:32.928Z,18.60
2018-02-21T13:59:00.389Z,18.40
2018-02-21T14:01:27.922Z,18.10
2018-02-21T14:03:55.362Z,18.10
2018-02-21T14:06:22.802Z,17.80
2018-02-21T14:08:50.254Z,17.70
2018-02-21T14:11:17.718Z,17.80
2018-02-21T14:13:45.176Z,17.90
2018-02-21T14:16:15.311Z,17.60
2018-02-21T14:18:42.769Z,17.40
2018-02-21T14:21:10.223Z,17.60
2018-02-21T14:23:37.699Z,17.70
2018-02-21T14:26:05.152Z,17.90
2018-02-21T14:28:32.699Z,17.80
2018-02-21T14:31:00.139Z,17.40
2018-02-21T14:33:27.638Z,16.40
2018-02-21T14:35:55.102Z,15.50
2018-02-21T14:38:22.556Z,15.10
2018-02-21T14:40:50.005Z,14.60
2018-02-21T14:43:17.448Z,14.00
2018-02-21T14:45:44.905Z,13.30
2018-02-21T14:48:12.436Z,12.80
2018-02-21T14:50:39.990Z,12.40
2018-02-21T14:53:08.219Z,12.10
2018-02-21T14:55:35.670Z,12.00
2018-02-21T14:58:03.128Z,11.90
2018-02-21T15:00:30.609Z,11.60
2018-02-21T15:02:59.682Z,11.10
2018-02-21T15:05:27.130Z,11.10
2018-02-21T15:07:54.578Z,10.80
2018-02-21T15:10:22.794Z,10.00
2018-02-21T15:12:50.245Z,10.00
2018-02-21T15:15:17.681Z,9.90
2018-02-21T15:17:45.184Z,9.70
2018-02-21T15:20:12.652Z,9.70
2018-02-21T15:22:41.632Z,10.40
2018-02-21T15:25:09.073Z,10.30
2018-02-21T15:27:36.881Z,10.60
2018-02-21T15:30:04.353Z,10.60
2018-02-21T15:32:31.810Z,10.40
2018-02-21T15:34:59.264Z,10.10
2018-02-21T15:37:26.705Z,9.80
2018-02-21T15:39:54.153Z,9.60
2018-02-21T15:42:21.610Z,9.30
2018-02-21T15:44:49.050Z,9.00
2018-02-21T15:47:17.262Z,8.60
2018-02-21T15:49:44.725Z,8.50
2018-02-21T15:52:12.210Z,8.50
2018-02-21T15:54:39.657Z,8.30
2018-02-21T15:57:07.097Z,8.10
2018-02-21T15:59:34.543Z,7.90
2018-02-21T16:02:02.764Z,7.50
2018-02-21T16:04:30.200Z,7.40
2018-02-21T16:06:57.657Z,7.30
2018-02-21T16:09:25.118Z,7.20
2018-02-21T16:11:52.573Z,7.10
2018-02-21T16:14:20.789Z,7.00
2018-02-21T16:16:48.249Z,6.90
2018-02-21T16:19:15.720Z,6.90
2018-02-21T16:21:43.178Z,6.90
2018-02-21T16:24:10.871Z,6.80
2018-02-21T16:26:38.323Z,6.80
2018-02-21T16:29:05.777Z,6.60
2018-02-21T16:31:33.240Z,6.60
2018-02-21T16:34:00.689Z,6.60
2018-02-21T16:36:28.141Z,6.50
2018-02-21T16:38:55.600Z,6.40
2018-02-21T16:41:23.042Z,6.30
2018-02-21T16:43:54.765Z,6.20
2018-02-21T16:46:22.214Z,6.10
2018-02-21T16:48:49.661Z,6.00
2018-02-21T16:51:17.134Z,5.90
2018-02-21T16:53:45.366Z,5.90
2018-02-21T16:56:12.817Z,5.80
2018-02-21T16:58:40.269Z,5.80
2018-02-21T17:01:11.981Z,5.70
2018-02-21T17:03:39.426Z,5.60
2018-02-21T17:06:06.874Z,5.60
2018-02-21T17:08:34.325Z,5.50
2018-02-21T17:11:01.760Z,5.50
2018-02-21T17:13:29.194Z,5.40
2018-02-21T17:15:56.665Z,5.30
2018-02-21T17:18:24.113Z,5.30
2018-02-21T17:20:51.574Z,5.30
2018-02-21T17:23:19.031Z,5.20
2018-02-21T17:25:46.469Z,5.20
2018-02-21T17:28:13.931Z,5.10
2018-02-21T17:30:41.385Z,5.10
2018-02-21T17:33:08.846Z,5.00
2018-02-21T17:35:36.301Z,5.00
2018-02-21T17:38:03.740Z,5.00
2018-02-21T17:40:31.205Z,5.00
2018-02-21T17:42:59.483Z,4.90
2018-02-21T17:45:27.695Z,4.90
2018-02-21T17:47:55.142Z,4.80
2018-02-21T17:50:22.592Z,4.80
2018-02-21T17:52:50.837Z,4.70
2018-02-21T17:55:18.280Z,4.70
2018-02-21T17:57:45.741Z,4.70
2018-02-21T18:00:13.204Z,4.60
2018-02-21T18:02:40.650Z,4.60
2018-02-21T18:05:08.104Z,4.50
2018-02-21T18:07:35.556Z,4.50
2018-02-21T18:10:03.089Z,4.50
2018-02-21T18:12:31.319Z,4.40
2018-02-21T18:14:58.781Z,4.40
2018-02-21T18:17:26.218Z,4.40
2018-02-21T18:19:53.657Z,4.30
2018-02-21T18:22:21.882Z,4.20
2018-02-21T18:24:49.338Z,4.10
2018-02-21T18:27:16.802Z,4.20
2018-02-21T18:29:44.241Z,4.10
2018-02-21T18:32:11.691Z,4.00
2018-02-21T18:34:39.910Z,3.90
2018-02-21T18:37:07.357Z,3.90
2018-02-21T18:39:34.813Z,3.90
2018-02-21T18:42:02.271Z,3.90
2018-02-21T18:44:29.728Z,3.80
2018-02-21T18:46:57.189Z,3.70
2018-02-21T18:49:24.635Z,3.70
2018-02-21T18:51:52.110Z,3.70
2018-02-21T18:54:19.552Z,3.60
2018-02-21T18:56:47.002Z,3.60
2018-02-21T18:59:14.468Z,3.60
2018-02-21T19:01:41.940Z,3.60
2018-02-21T19:04:09.395Z,3.50
2018-02-21T19:06:36.835Z,3.50
2018-02-21T19:09:04.570Z,3.40
2018-02-21T19:11:32.040Z,3.40
2018-02-21T19:14:00.384Z,3.40
2018-02-21T19:16:27.841Z,3.30
2018-02-21T19:18:55.285Z,3.30
2018-02-21T19:21:24.575Z,3.20
2018-02-21T19:23:52.036Z,3.20
2018-02-21T19:26:22.646Z,3.10
2018-02-21T19:28:50.101Z,3.10
2018-02-21T19:31:17.567Z,3.10
2018-02-21T19:33:44.997Z,3.00
2018-02-21T19:36:12.462Z,3.10
2018-02-21T19:38:39.904Z,3.00
2018-02-21T19:41:08.141Z,2.90
2018-02-21T19:43:35.599Z,2.90
2018-02-21T19:46:03.034Z,2.90
2018-02-21T19:48:30.497Z,2.80
2018-02-21T19:51:01.125Z,2.80
2018-02-21T19:53:28.608Z,2.70
2018-02-21T19:55:56.041Z,2.70
2018-02-21T19:58:23.485Z,2.70
2018-02-21T20:00:51.716Z,2.60
2018-02-21T20:03:20.101Z,2.50
2018-02-21T20:05:47.537Z,2.50
2018-02-21T20:08:14.984Z,2.50
2018-02-21T20:10:42.434Z,2.40
2018-02-21T20:13:09.910Z,2.40
2018-02-21T20:15:37.341Z,2.40
2018-02-21T20:18:04.797Z,2.30
2018-02-21T20:20:32.242Z,2.30
2018-02-21T20:22:59.681Z,2.30
2018-02-21T20:25:27.173Z,2.20
2018-02-21T20:27:54.638Z,2.20
2018-02-21T20:30:22.086Z,2.20
2018-02-21T20:32:49.533Z,2.10
2018-02-21T20:35:16.995Z,2.10
2018-02-21T20:37:44.434Z,2.00
2018-02-21T20:40:11.899Z,2.00
2018-02-21T20:42:39.369Z,2.00
2018-02-21T20:45:06.891Z,1.90
2018-02-21T20:47:34.296Z,1.90
2018-02-21T20:50:01.745Z,1.90
2018-02-21T20:52:29.225Z,1.90
2018-02-21T20:54:56.690Z,1.90
2018-02-21T20:57:24.124Z,1.80
2018-02-21T20:59:51.861Z,1.80
2018-02-21T21:02:19.322Z,1.70
2018-02-21T21:04:47.277Z,1.70
2018-02-21T21:07:14.733Z,1.70
2018-02-21T21:09:42.186Z,1.70
2018-02-21T21:12:09.673Z,1.70
2018-02-21T21:14:37.117Z,1.70
2018-02-21T21:17:04.787Z,1.70
2018-02-21T21:19:32.276Z,1.70
2018-02-21T21:21:59.717Z,1.60
2018-02-21T21:24:27.176Z,1.60
2018-02-21T21:26:54.612Z,1.60
2018-02-21T21:29:22.064Z,1.60
2018-02-21T21:31:49.524Z,1.60
2018-02-21T21:34:16.968Z,1.60
2018-02-21T21:36:44.433Z,1.50
2018-02-21T21:39:11.894Z,1.50
2018-02-21T21:41:39.356Z,1.50
2018-02-21T21:44:06.802Z,1.50
2018-02-21T21:46:35.349Z,1.40
2018-02-21T21:49:02.843Z,1.40
2018-02-21T21:51:30.284Z,1.40
2018-02-21T21:53:57.728Z,1.40
2018-02-21T21:56:25.178Z,1.40
2018-02-21T21:58:52.613Z,1.40
2018-02-21T22:01:20.093Z,1.30
2018-02-21T22:03:47.524Z,1.30
2018-02-21T22:06:14.965Z,1.30
2018-02-21T22:08:42.439Z,1.30
2018-02-21T22:11:09.876Z,1.30
2018-02-21T22:13:38.360Z,1.20
2018-02-21T22:16:06.215Z,1.20
2018-02-21T22:18:33.657Z,1.20
2018-02-21T22:21:01.118Z,1.20
2018-02-21T22:23:28.575Z,1.20
2018-02-21T22:25:56.046Z,1.10
2018-02-21T22:28:23.527Z,1.10
2018-02-21T22:30:50.956Z,1.10
2018-02-21T22:33:18.415Z,1.10
2018-02-21T22:35:45.853Z,1.10
2018-02-21T22:38:13.322Z,1.10
2018-02-21T22:40:40.761Z,1.00
2018-02-21T22:43:08.235Z,1.00
2018-02-21T22:45:35.696Z,1.00
2018-02-21T22:48:03.140Z,1.00
2018-02-21T22:50:30.604Z,0.90
2018-02-21T22:52:58.055Z,0.90
2018-02-21T22:55:25.510Z,0.90
2018-02-21T22:57:52.962Z,0.90
2018-02-21T23:00:20.409Z,0.90
2018-02-21T23:02:47.857Z,0.90
2018-02-21T23:05:15.301Z,0.80
2018-02-21T23:07:42.741Z,0.80
2018-02-21T23:10:10.968Z,0.80
2018-02-21T23:12:38.431Z,0.70
2018-02-21T23:15:05.893Z,0.80
2018-02-21T23:17:33.334Z,0.80
2018-02-21T23:20:00.781Z,0.80
2018-02-21T23:22:33.793Z,0.80
2018-02-21T23:25:01.229Z,0.70
2018-02-21T23:27:28.948Z,0.70
2018-02-21T23:29:56.392Z,0.70
2018-02-21T23:32:23.835Z,0.70
2018-02-21T23:34:51.297Z,0.70
2018-02-21T23:37:18.740Z,0.70
2018-02-21T23:39:46.218Z,0.70
2018-02-21T23:42:13.657Z,0.70
2018-02-21T23:44:41.100Z,0.60
2018-02-21T23:47:08.718Z,0.60
2018-02-21T23:49:36.162Z,0.60
2018-02-21T23:52:03.633Z,0.60
2018-02-21T23:54:31.096Z,0.60
2018-02-21T23:56:58.776Z,0.60
2018-02-21T23:59:26.225Z,0.60
